Time;durP1;ratioP1;P1;durP2;ratioP2;P2;SDS_P1;SDS_P2;PMS_P1;PMS_P2;Temp;Humidity;BMP_temperature;BMP_pressure;BME280_temperature;BME280_humidity;BME280_pressure;Samples;Min_cycle;Max_cycle;Signal;HPM_P1;HPM_P2
2022/08/04 00:01:03;;;;;;;2.27;1.93;;;;;;;;;;4921892;28;20187;-36
2022/08/04 00:03:33;;;;;;;3.37;1.90;;;;;;;;;;4919126;28;21121;-36
2022/08/04 00:06:02;;;;;;;4.97;1.80;;;;;;;;;;4920845;28;20197;-36
2022/08/04 00:08:31;;;;;;;7.47;2.20;;;;;;;;;;4923683;28;20524;-36
2022/08/04 00:10:59;;;;;;;3.03;1.70;;;;;;;;;;4926470;28;20639;-36
2022/08/04 00:13:26;;;;;;;5.93;2.30;;;;;;;;;;4915052;28;20291;-36
2022/08/04 00:15:53;;;;;;;2.23;2.00;;;;;;;;;;4923704;28;20544;-36
2022/08/04 00:18:23;;;;;;;4.00;2.20;;;;;;;;;;4923956;28;21720;-36
2022/08/04 00:20:50;;;;;;;3.27;2.20;;;;;;;;;;4923857;28;20295;-36
2022/08/04 00:23:17;;;;;;;3.00;1.77;;;;;;;;;;4917500;28;20989;-36
2022/08/04 00:25:44;;;;;;;4.53;2.23;;;;;;;;;;4950427;28;20188;-36
2022/08/04 00:28:10;;;;;;;5.07;2.00;;;;;;;;;;4920826;28;20493;-36
2022/08/04 00:30:36;;;;;;;5.77;1.80;;;;;;;;;;4921593;28;20179;-37
2022/08/04 00:33:02;;;;;;;6.53;1.80;;;;;;;;;;4919762;28;20190;-36
2022/08/04 00:35:28;;;;;;;3.43;2.03;;;;;;;;;;4929623;28;20233;-37
2022/08/04 00:37:55;;;;;;;3.10;1.87;;;;;;;;;;4932021;28;20457;-36
2022/08/04 00:40:30;;;;;;;2.30;2.10;;;;;;;;;;4934735;28;21061;-37
2022/08/04 00:43:15;;;;;;;3.90;1.97;;;;;;;;;;4923029;28;20618;-36
2022/08/04 00:45:54;;;;;;;2.03;1.73;;;;;;;;;;4926058;28;21365;-36
2022/08/04 00:48:30;;;;;;;2.77;2.00;;;;;;;;;;4919401;28;20466;-37
2022/08/04 00:50:56;;;;;;;3.47;1.83;;;;;;;;;;4916212;28;20446;-36
2022/08/04 00:53:36;;;;;;;3.50;2.17;;;;;;;;;;4926003;28;20682;-36
2022/08/04 00:56:05;;;;;;;2.83;1.93;;;;;;;;;;4922583;28;20277;-36
2022/08/04 00:58:34;;;;;;;2.33;1.90;;;;;;;;;;4920907;28;20382;-36
2022/08/04 01:01:03;;;;;;;3.53;1.90;;;;;;;;;;4955927;28;20198;-37
2022/08/04 01:03:44;;;;;;;2.57;2.37;;;;;;;;;;4920064;28;20615;-37
2022/08/04 01:06:34;;;;;;;3.83;2.20;;;;;;;;;;4923970;28;20601;-36
2022/08/04 01:09:29;;;;;;;2.70;1.90;;;;;;;;;;4913408;28;20866;-36
2022/08/04 01:12:10;;;;;;;2.63;1.93;;;;;;;;;;4924978;28;20287;-36
2022/08/04 01:14:55;;;;;;;3.40;2.20;;;;;;;;;;4920513;28;20885;-36
2022/08/04 01:17:25;;;;;;;2.47;2.27;;;;;;;;;;4925534;28;20178;-37
2022/08/04 01:19:51;;;;;;;2.87;2.17;;;;;;;;;;4921587;28;20906;-36
2022/08/04 01:22:24;;;;;;;2.90;2.00;;;;;;;;;;4928215;28;20198;-36
2022/08/04 01:25:09;;;;;;;2.60;2.10;;;;;;;;;;4923700;28;20191;-36
2022/08/04 01:28:01;;;;;;;3.70;2.10;;;;;;;;;;4926199;28;20206;-36
2022/08/04 01:30:27;;;;;;;2.40;1.80;;;;;;;;;;4917563;28;20241;-37
2022/08/04 01:33:01;;;;;;;2.60;1.90;;;;;;;;;;4923521;28;20186;-36
2022/08/04 01:35:35;;;;;;;5.03;2.20;;;;;;;;;;4921922;28;20218;-36
2022/08/04 01:38:06;;;;;;;4.00;2.20;;;;;;;;;;4921664;28;20807;-36
2022/08/04 01:40:33;;;;;;;3.07;2.10;;;;;;;;;;4921488;28;20769;-36
2022/08/04 01:43:00;;;;;;;3.27;2.13;;;;;;;;;;4923458;28;20206;-36
2022/08/04 01:45:27;;;;;;;2.87;2.07;;;;;;;;;;4930169;28;20588;-37
2022/08/04 01:47:54;;;;;;;2.27;2.07;;;;;;;;;;4927523;28;20841;-37
2022/08/04 01:50:21;;;;;;;2.43;2.20;;;;;;;;;;4924249;28;20184;-36
2022/08/04 01:52:47;;;;;;;3.57;2.00;;;;;;;;;;4930157;28;20616;-36
2022/08/04 01:55:14;;;;;;;2.10;1.90;;;;;;;;;;4934343;28;20179;-37
2022/08/04 01:57:42;;;;;;;4.40;2.20;;;;;;;;;;4924040;28;20293;-37
2022/08/04 02:00:08;;;;;;;4.17;2.33;;;;;;;;;;4927489;28;20200;-37
2022/08/04 02:02:35;;;;;;;3.27;2.07;;;;;;;;;;4926173;28;20214;-36
2022/08/04 02:05:01;;;;;;;3.53;2.10;;;;;;;;;;4926581;28;20175;-36
2022/08/04 02:07:45;;;;;;;2.33;2.07;;;;;;;;;;4925594;28;20825;-37
2022/08/04 02:10:35;;;;;;;3.90;2.20;;;;;;;;;;4928492;28;20918;-36
2022/08/04 02:13:01;;;;;;;4.87;2.13;;;;;;;;;;4929422;28;20221;-37
2022/08/04 02:15:33;;;;;;;3.00;2.10;;;;;;;;;;4925920;28;20264;-36
2022/08/04 02:18:04;;;;;;;2.00;1.80;;;;;;;;;;4933459;28;20865;-37
2022/08/04 02:20:30;;;;;;;4.07;2.17;;;;;;;;;;4926023;28;20183;-36
2022/08/04 02:22:58;;;;;;;3.73;2.20;;;;;;;;;;4927883;28;20513;-36
2022/08/04 02:25:25;;;;;;;3.73;1.80;;;;;;;;;;4926233;28;20183;-37
2022/08/04 02:28:11;;;;;;;3.90;2.23;;;;;;;;;;4925797;28;20179;-37
2022/08/04 02:30:57;;;;;;;3.20;2.40;;;;;;;;;;4929214;28;20179;-36
2022/08/04 02:33:26;;;;;;;3.53;2.43;;;;;;;;;;4932273;28;20554;-36
2022/08/04 02:35:55;;;;;;;5.03;2.57;;;;;;;;;;4928623;28;21520;-36
2022/08/04 02:38:24;;;;;;;3.47;2.40;;;;;;;;;;4923812;28;20198;-36
2022/08/04 02:40:52;;;;;;;6.13;2.97;;;;;;;;;;4927928;28;20532;-36
2022/08/04 02:43:19;;;;;;;4.53;2.70;;;;;;;;;;4922916;28;20590;-37
2022/08/04 02:45:46;;;;;;;5.07;2.93;;;;;;;;;;4932626;28;20225;-36
2022/08/04 02:48:14;;;;;;;5.53;3.40;;;;;;;;;;4925200;28;20175;-37
2022/08/04 02:50:40;;;;;;;4.30;3.10;;;;;;;;;;4927217;28;20952;-37
2022/08/04 02:53:09;;;;;;;4.03;3.00;;;;;;;;;;4919221;28;20743;-36
2022/08/04 02:55:35;;;;;;;7.63;3.70;;;;;;;;;;4927972;28;20406;-37
2022/08/04 02:58:03;;;;;;;5.00;3.20;;;;;;;;;;4930364;28;20179;-36
2022/08/04 03:00:30;;;;;;;5.03;3.47;;;;;;;;;;4925834;28;20183;-37
2022/08/04 03:03:15;;;;;;;6.17;3.13;;;;;;;;;;4924543;28;20462;-37
2022/08/04 03:05:58;;;;;;;6.93;3.10;;;;;;;;;;4932795;28;20186;-36
2022/08/04 03:08:42;;;;;;;4.63;3.30;;;;;;;;;;4925487;28;20187;-36
2022/08/04 03:11:21;;;;;;;4.67;2.90;;;;;;;;;;4930930;28;20776;-36
2022/08/04 03:13:53;;;;;;;6.63;3.40;;;;;;;;;;4928859;28;20485;-37
2022/08/04 03:16:19;;;;;;;7.47;3.07;;;;;;;;;;4927899;28;20187;-36
2022/08/04 03:19:03;;;;;;;4.70;3.13;;;;;;;;;;4922435;28;20191;-36
2022/08/04 03:21:54;;;;;;;5.30;3.00;;;;;;;;;;4926187;28;20183;-36
2022/08/04 03:24:50;;;;;;;6.07;3.30;;;;;;;;;;4923879;28;20675;-36
2022/08/04 03:27:35;;;;;;;5.13;3.00;;;;;;;;;;4926470;28;20309;-37
2022/08/04 03:30:05;;;;;;;7.67;3.60;;;;;;;;;;4928928;28;20267;-36
2022/08/04 03:32:50;;;;;;;7.10;3.50;;;;;;;;;;4923351;28;20584;-36
2022/08/04 03:35:35;;;;;;;6.37;3.07;;;;;;;;;;4923315;28;22383;-36
2022/08/04 03:38:04;;;;;;;4.67;2.90;;;;;;;;;;4925827;28;20226;-36
2022/08/04 03:40:33;;;;;;;4.37;2.63;;;;;;;;;;4925621;28;20175;-36
2022/08/04 03:43:17;;;;;;;7.43;2.90;;;;;;;;;;4924720;28;20207;-36
2022/08/04 03:46:02;;;;;;;6.00;3.10;;;;;;;;;;4923732;28;20683;-35
2022/08/04 03:48:40;;;;;;;5.20;3.07;;;;;;;;;;4921104;28;22265;-36
2022/08/04 03:54:25;;;;;;;6.37;2.90;;;;;;;;;;4922396;28;20607;-37
2022/08/04 03:56:54;;;;;;;3.37;2.60;;;;;;;;;;4928701;28;20225;-36
2022/08/04 03:59:32;;;;;;;7.13;3.03;;;;;;;;;;4921703;28;20600;-36
2022/08/04 04:01:58;;;;;;;4.57;2.60;;;;;;;;;;4927830;28;20386;-37
2022/08/04 04:04:31;;;;;;;5.23;2.87;;;;;;;;;;4957248;28;20413;-36
2022/08/04 04:07:12;;;;;;;5.83;2.80;;;;;;;;;;4919965;28;20195;-36
2022/08/04 04:09:57;;;;;;;4.43;2.67;;;;;;;;;;4929092;28;20753;-36
2022/08/04 04:12:23;;;;;;;4.23;2.63;;;;;;;;;;4933517;28;20251;-36
2022/08/04 04:15:08;;;;;;;6.00;2.43;;;;;;;;;;4924279;28;20174;-36
2022/08/04 04:17:37;;;;;;;4.13;2.47;;;;;;;;;;4923410;28;21158;-36
2022/08/04 04:20:29;;;;;;;4.70;2.90;;;;;;;;;;4925740;28;20288;-36
2022/08/04 04:23:16;;;;;;;4.00;2.90;;;;;;;;;;4922545;28;20229;-36
2022/08/04 04:25:44;;;;;;;4.70;2.80;;;;;;;;;;4906421;28;20805;-37
2022/08/04 04:28:17;;;;;;;3.83;2.67;;;;;;;;;;4926720;28;20723;-36
2022/08/04 04:30:43;;;;;;;5.57;2.93;;;;;;;;;;4926803;28;20183;-37
2022/08/04 04:33:18;;;;;;;4.83;2.63;;;;;;;;;;4922930;28;20212;-36
2022/08/04 04:35:53;;;;;;;7.67;3.10;;;;;;;;;;4925817;28;20194;-36
2022/08/04 04:38:19;;;;;;;5.10;3.00;;;;;;;;;;4921586;28;20746;-36
2022/08/04 04:40:56;;;;;;;4.93;2.80;;;;;;;;;;4927093;28;20181;-36
2022/08/04 04:43:31;;;;;;;5.43;2.80;;;;;;;;;;4924902;28;20322;-37
2022/08/04 04:46:03;;;;;;;7.67;3.07;;;;;;;;;;4927260;28;20463;-37
2022/08/04 04:48:41;;;;;;;4.40;2.90;;;;;;;;;;4925321;28;20183;-36
2022/08/04 04:51:07;;;;;;;7.17;3.13;;;;;;;;;;4921238;28;20187;-36
2022/08/04 04:53:52;;;;;;;6.77;3.30;;;;;;;;;;4925129;28;20218;-36
2022/08/04 04:56:36;;;;;;;5.43;3.00;;;;;;;;;;4930425;28;20186;-36
2022/08/04 04:59:03;;;;;;;7.30;3.07;;;;;;;;;;4923125;28;20339;-37
2022/08/04 05:01:48;;;;;;;4.27;2.63;;;;;;;;;;4954861;28;20182;-36
2022/08/04 05:04:17;;;;;;;3.63;2.67;;;;;;;;;;4921432;28;21748;-36
2022/08/04 05:07:10;;;;;;;4.23;2.33;;;;;;;;;;4930229;28;20186;-36
2022/08/04 05:09:48;;;;;;;4.03;2.60;;;;;;;;;;4925021;28;20209;-37
2022/08/04 05:12:32;;;;;;;3.33;2.57;;;;;;;;;;4922800;28;20285;-36
2022/08/04 05:14:59;;;;;;;5.60;3.10;;;;;;;;;;4923659;28;20181;-36
2022/08/04 05:17:27;;;;;;;8.43;3.07;;;;;;;;;;4930934;28;20724;-36
2022/08/04 05:19:57;;;;;;;6.40;2.80;;;;;;;;;;4927243;28;20170;-36
2022/08/04 05:22:32;;;;;;;4.77;2.53;;;;;;;;;;4953509;28;20207;-36
2022/08/04 05:25:01;;;;;;;4.93;2.70;;;;;;;;;;4937378;28;20496;-36
2022/08/04 05:27:35;;;;;;;5.60;2.87;;;;;;;;;;4934567;28;20500;-37
2022/08/04 05:30:03;;;;;;;10.33;3.10;;;;;;;;;;4934332;28;20171;-36
2022/08/04 05:32:32;;;;;;;3.27;2.77;;;;;;;;;;4941200;28;20175;-37
2022/08/04 05:35:02;;;;;;;5.47;2.77;;;;;;;;;;4932218;28;20801;-37
2022/08/04 05:37:30;;;;;;;3.67;2.53;;;;;;;;;;4935220;28;20222;-37
2022/08/04 05:39:58;;;;;;;7.43;2.87;;;;;;;;;;4933180;28;20329;-36
2022/08/04 05:42:25;;;;;;;3.53;2.50;;;;;;;;;;4935859;28;20314;-36
2022/08/04 05:45:01;;;;;;;;;;;;;;;;;;;;;
2022/08/04 05:47:28;;;;;;;3.47;2.50;;;;;;;;;;4933682;28;20191;-36
2022/08/04 05:49:54;;;;;;;3.37;2.30;;;;;;;;;;4933017;28;20175;-37
2022/08/04 05:52:21;;;;;;;5.00;2.33;;;;;;;;;;4940482;28;20167;-36
2022/08/04 05:54:48;;;;;;;2.97;2.30;;;;;;;;;;4937043;28;20706;-36
2022/08/04 05:57:14;;;;;;;6.63;2.40;;;;;;;;;;4939025;28;20984;-36
2022/08/04 05:59:45;;;;;;;7.10;2.73;;;;;;;;;;4940274;28;20186;-36
2022/08/04 06:02:12;;;;;;;5.10;2.40;;;;;;;;;;4939360;28;20548;-37
2022/08/04 06:04:38;;;;;;;4.67;2.33;;;;;;;;;;4936417;28;20805;-36
2022/08/04 06:07:05;;;;;;;5.27;2.27;;;;;;;;;;4956632;28;20179;-37
2022/08/04 06:09:32;;;;;;;3.87;2.10;;;;;;;;;;4939770;28;20734;-36
2022/08/04 06:12:02;;;;;;;5.57;2.20;;;;;;;;;;4938638;28;20556;-36
2022/08/04 06:14:32;;;;;;;5.60;2.20;;;;;;;;;;4939152;28;20174;-37
2022/08/04 06:16:59;;;;;;;4.23;2.13;;;;;;;;;;4937702;28;20928;-37
2022/08/04 06:19:26;;;;;;;3.40;2.33;;;;;;;;;;4936492;28;20668;-37
2022/08/04 06:21:55;;;;;;;6.13;2.17;;;;;;;;;;4939859;28;20171;-36
2022/08/04 06:24:23;;;;;;;3.90;2.17;;;;;;;;;;4941157;28;20166;-36
2022/08/04 06:26:49;;;;;;;5.87;2.10;;;;;;;;;;4939245;28;20574;-36
2022/08/04 06:29:25;;;;;;;5.17;2.40;;;;;;;;;;4939592;28;20741;-37
2022/08/04 06:31:57;;;;;;;5.37;2.20;;;;;;;;;;4939864;28;20170;-37
2022/08/04 06:34:24;;;;;;;6.70;2.53;;;;;;;;;;4937884;28;20788;-36
2022/08/04 06:36:50;;;;;;;2.10;1.90;;;;;;;;;;4936775;28;20366;-37
2022/08/04 06:39:16;;;;;;;3.30;2.30;;;;;;;;;;4936589;28;20268;-37
2022/08/04 06:41:43;;;;;;;6.17;1.97;;;;;;;;;;4937253;28;20627;-36
2022/08/04 06:44:10;;;;;;;4.63;2.30;;;;;;;;;;4968408;28;20297;-36
2022/08/04 06:46:38;;;;;;;4.83;2.10;;;;;;;;;;4941014;28;20167;-36
2022/08/04 06:49:04;;;;;;;5.13;2.27;;;;;;;;;;4932830;28;20183;-36
2022/08/04 06:51:31;;;;;;;5.23;2.10;;;;;;;;;;4938877;28;20202;-36
2022/08/04 06:53:57;;;;;;;4.13;2.00;;;;;;;;;;4939359;28;20421;-36
2022/08/04 06:56:24;;;;;;;4.97;2.30;;;;;;;;;;4936597;28;20636;-36
2022/08/04 06:58:52;;;;;;;4.47;2.00;;;;;;;;;;4936470;28;20663;-36
2022/08/04 07:01:19;;;;;;;3.57;2.00;;;;;;;;;;4940168;28;20178;-37
2022/08/04 07:06:32;;;;;;;6.23;2.03;;;;;;;;;;4934085;28;20488;-37
2022/08/04 07:08:59;;;;;;;5.83;2.07;;;;;;;;;;4939976;28;20638;-37
2022/08/04 07:11:26;;;;;;;1.90;1.70;;;;;;;;;;4936907;28;20269;-37
2022/08/04 07:13:52;;;;;;;3.33;1.90;;;;;;;;;;4938592;28;20245;-37
2022/08/04 07:16:20;;;;;;;5.37;2.07;;;;;;;;;;4940564;28;20275;-37
2022/08/04 07:18:46;;;;;;;5.33;2.30;;;;;;;;;;4938683;28;20194;-37
2022/08/04 07:21:19;;;;;;;7.17;2.20;;;;;;;;;;4936491;28;20201;-37
2022/08/04 07:23:45;;;;;;;6.50;1.93;;;;;;;;;;4940147;28;20572;-37
2022/08/04 07:26:14;;;;;;;4.70;1.97;;;;;;;;;;4939247;28;20660;-37
2022/08/04 07:28:40;;;;;;;5.27;1.90;;;;;;;;;;4935596;28;20746;-37
2022/08/04 07:31:09;;;;;;;5.93;2.30;;;;;;;;;;4937257;28;20567;-36
2022/08/04 07:33:35;;;;;;;4.00;2.00;;;;;;;;;;4939661;28;20218;-37
2022/08/04 07:36:01;;;;;;;5.33;2.00;;;;;;;;;;4937657;28;20296;-37
2022/08/04 07:38:28;;;;;;;4.23;2.13;;;;;;;;;;4938673;28;20187;-37
2022/08/04 07:40:54;;;;;;;3.77;2.10;;;;;;;;;;4937872;28;20261;-37
2022/08/04 07:43:21;;;;;;;3.00;1.70;;;;;;;;;;4934167;28;20202;-37
2022/08/04 07:45:47;;;;;;;6.90;2.23;;;;;;;;;;4938039;28;20478;-37
2022/08/04 07:48:14;;;;;;;4.77;1.80;;;;;;;;;;4939821;28;20281;-37
2022/08/04 07:50:42;;;;;;;6.10;1.90;;;;;;;;;;4934908;28;20389;-37
2022/08/04 07:53:09;;;;;;;6.63;2.30;;;;;;;;;;4935610;28;20175;-37
2022/08/04 07:55:36;;;;;;;4.33;1.80;;;;;;;;;;4938015;28;20174;-37
2022/08/04 07:58:02;;;;;;;5.80;2.40;;;;;;;;;;4938162;28;20269;-37
2022/08/04 08:00:28;;;;;;;4.43;2.10;;;;;;;;;;4936111;28;20210;-37
2022/08/04 08:02:54;;;;;;;8.30;2.43;;;;;;;;;;4936012;28;20202;-37
2022/08/04 08:05:21;;;;;;;7.70;1.90;;;;;;;;;;4938664;28;20272;-37
2022/08/04 08:07:47;;;;;;;3.43;2.20;;;;;;;;;;4932865;28;20182;-37
2022/08/04 08:10:14;;;;;;;6.87;2.27;;;;;;;;;;4937737;28;20178;-37
2022/08/04 08:12:41;;;;;;;3.33;1.97;;;;;;;;;;4938957;28;20340;-37
2022/08/04 08:15:08;;;;;;;6.40;2.20;;;;;;;;;;4936329;28;20181;-38
2022/08/04 08:17:34;;;;;;;3.60;2.20;;;;;;;;;;4935986;28;20623;-37
2022/08/04 08:20:00;;;;;;;5.83;2.00;;;;;;;;;;4938184;28;20186;-37
2022/08/04 08:22:27;;;;;;;5.37;2.20;;;;;;;;;;4936144;28;20203;-37
2022/08/04 08:24:53;;;;;;;2.67;1.87;;;;;;;;;;4937612;28;20181;-37
2022/08/04 08:27:19;;;;;;;8.73;2.80;;;;;;;;;;4939853;28;21165;-37
2022/08/04 08:29:46;;;;;;;8.20;2.80;;;;;;;;;;4934460;28;20709;-37
2022/08/04 08:32:13;;;;;;;6.93;3.00;;;;;;;;;;4934431;28;20196;-37
2022/08/04 08:34:39;;;;;;;9.47;2.70;;;;;;;;;;4938490;28;20186;-37
2022/08/04 08:37:08;;;;;;;4.40;2.50;;;;;;;;;;4937900;28;20186;-37
2022/08/04 08:39:38;;;;;;;5.13;2.57;;;;;;;;;;4935936;28;20185;-37
2022/08/04 08:42:17;;;;;;;7.60;2.30;;;;;;;;;;4937378;28;20949;-37
2022/08/04 08:44:49;;;;;;;9.07;2.97;;;;;;;;;;4938849;28;20622;-38
2022/08/04 08:47:15;;;;;;;3.90;2.10;;;;;;;;;;4937043;28;20628;-37
2022/08/04 08:49:49;;;;;;;6.57;2.50;;;;;;;;;;4935632;28;20293;-38
2022/08/04 08:52:20;;;;;;;2.57;2.03;;;;;;;;;;4938550;28;20202;-37
2022/08/04 08:55:01;;;;;;;5.97;2.43;;;;;;;;;;4935499;28;20431;-37
2022/08/04 08:57:27;;;;;;;7.93;2.23;;;;;;;;;;4939584;28;20179;-37
2022/08/04 09:00:02;;;;;;;9.00;2.80;;;;;;;;;;4935789;28;20184;-37
2022/08/04 09:02:28;;;;;;;7.27;2.60;;;;;;;;;;4935214;28;20541;-38
2022/08/04 09:05:00;;;;;;;5.93;2.60;;;;;;;;;;4938621;28;20193;-37
2022/08/04 09:07:26;;;;;;;7.77;3.53;;;;;;;;;;4931337;28;20188;-37
2022/08/04 09:10:16;;;;;;;5.40;2.27;;;;;;;;;;4933865;28;20185;-37
2022/08/04 09:12:54;;;;;;;4.93;2.23;;;;;;;;;;4917880;28;20197;-37
2022/08/04 09:15:26;;;;;;;8.20;2.47;;;;;;;;;;4930924;28;20193;-37
2022/08/04 09:17:59;;;;;;;5.53;1.90;;;;;;;;;;4927438;28;20189;-37
2022/08/04 09:20:29;;;;;;;3.77;2.40;;;;;;;;;;4933820;28;20253;-37
2022/08/04 09:23:01;;;;;;;3.87;2.43;;;;;;;;;;4931818;28;21085;-38
2022/08/04 09:25:34;;;;;;;6.03;2.23;;;;;;;;;;4932699;28;20907;-37
2022/08/04 09:28:07;;;;;;;3.87;2.13;;;;;;;;;;4933353;28;20434;-38
2022/08/04 09:30:44;;;;;;;6.87;2.40;;;;;;;;;;4933559;28;20178;-38
2022/08/04 09:33:29;;;;;;;3.17;2.30;;;;;;;;;;4934543;28;20984;-38
2022/08/04 09:36:00;;;;;;;7.03;2.20;;;;;;;;;;4936646;28;20763;-39
2022/08/04 09:38:29;;;;;;;4.67;2.50;;;;;;;;;;4936724;28;20964;-38
2022/08/04 09:40:59;;;;;;;4.47;2.30;;;;;;;;;;4934543;28;20194;-37
2022/08/04 09:43:40;;;;;;;6.20;2.50;;;;;;;;;;4938360;28;20214;-37
2022/08/04 09:46:14;;;;;;;5.57;2.10;;;;;;;;;;4937900;28;20167;-37
2022/08/04 09:48:46;;;;;;;3.60;2.00;;;;;;;;;;4934488;28;21653;-37
2022/08/04 09:51:31;;;;;;;5.57;1.93;;;;;;;;;;4935016;28;20179;-37
2022/08/04 09:54:01;;;;;;;4.90;1.90;;;;;;;;;;4939400;28;20179;-38
2022/08/04 09:56:35;;;;;;;4.17;1.90;;;;;;;;;;4967435;28;20221;-37
2022/08/04 09:59:07;;;;;;;2.77;1.70;;;;;;;;;;4939049;28;20170;-37
2022/08/04 10:01:34;;;;;;;4.60;1.90;;;;;;;;;;4937952;28;20175;-37
2022/08/04 10:04:01;;;;;;;4.47;1.93;;;;;;;;;;4935703;28;20207;-37
2022/08/04 10:06:33;;;;;;;5.80;1.57;;;;;;;;;;4936370;28;20179;-37
2022/08/04 10:09:17;;;;;;;3.90;1.40;;;;;;;;;;4937855;28;20263;-38
2022/08/04 10:11:46;;;;;;;3.00;1.70;;;;;;;;;;4935738;28;21023;-37
2022/08/04 10:14:31;;;;;;;2.43;1.57;;;;;;;;;;4935412;28;20192;-36
2022/08/04 10:17:06;;;;;;;5.00;1.90;;;;;;;;;;4937137;28;20889;-40
2022/08/04 10:19:36;;;;;;;1.63;1.33;;;;;;;;;;4938319;28;20182;-36
2022/08/04 10:22:14;;;;;;;2.13;1.43;;;;;;;;;;4936273;28;20174;-36
2022/08/04 10:24:46;;;;;;;1.90;1.57;;;;;;;;;;4931055;28;20186;-36
2022/08/04 10:27:16;;;;;;;3.30;1.80;;;;;;;;;;4933242;28;20180;-37
2022/08/04 10:29:44;;;;;;;3.73;1.60;;;;;;;;;;4937099;28;20391;-36
2022/08/04 10:32:28;;;;;;;2.37;1.60;;;;;;;;;;4940098;28;20599;-38
2022/08/04 10:35:00;;;;;;;5.30;1.60;;;;;;;;;;4940262;28;20884;-36
2022/08/04 10:37:37;;;;;;;2.37;1.40;;;;;;;;;;4936350;28;20251;-37
2022/08/04 10:40:35;;;;;;;3.70;1.23;;;;;;;;;;4939408;28;20662;-37
2022/08/04 10:43:20;;;;;;;2.47;1.50;;;;;;;;;;4935445;28;20597;-36
2022/08/04 10:46:04;;;;;;;1.67;1.13;;;;;;;;;;4941688;28;21043;-36
2022/08/04 10:48:30;;;;;;;1.53;1.17;;;;;;;;;;4939582;28;20230;-37
2022/08/04 10:51:02;;;;;;;2.57;1.20;;;;;;;;;;4938920;28;20662;-36
2022/08/04 10:53:29;;;;;;;1.73;1.23;;;;;;;;;;4941964;28;20384;-36
2022/08/04 10:56:08;;;;;;;3.57;1.30;;;;;;;;;;4937674;28;20673;-36
2022/08/04 10:58:48;;;;;;;1.27;1.13;;;;;;;;;;4948028;28;20194;-36
2022/08/04 11:01:23;;;;;;;2.60;1.30;;;;;;;;;;4941210;28;20171;-36
2022/08/04 11:03:56;;;;;;;1.67;1.30;;;;;;;;;;4938686;28;20259;-36
2022/08/04 11:06:23;;;;;;;1.70;1.10;;;;;;;;;;4941759;28;20547;-36
2022/08/04 11:08:56;;;;;;;3.33;1.37;;;;;;;;;;4936808;28;20441;-37
2022/08/04 11:11:31;;;;;;;2.53;1.30;;;;;;;;;;4937932;28;20238;-36
2022/08/04 11:13:57;;;;;;;2.17;1.33;;;;;;;;;;4941496;28;20182;-36
2022/08/04 11:16:29;;;;;;;1.30;1.20;;;;;;;;;;4939499;28;20505;-36
2022/08/04 11:19:04;;;;;;;1.23;1.10;;;;;;;;;;4935044;28;20313;-36
2022/08/04 11:21:35;;;;;;;3.67;1.30;;;;;;;;;;4940282;28;20208;-36
2022/08/04 11:24:08;;;;;;;2.40;1.10;;;;;;;;;;4938614;28;20285;-36
2022/08/04 11:27:01;;;;;;;1.30;1.20;;;;;;;;;;4936383;28;20195;-37
2022/08/04 11:29:36;;;;;;;2.53;1.20;;;;;;;;;;4939234;28;20506;-36
2022/08/04 11:32:03;;;;;;;4.37;1.50;;;;;;;;;;4938772;28;20170;-37
2022/08/04 11:34:30;;;;;;;1.67;1.10;;;;;;;;;;4938138;28;20171;-36
2022/08/04 11:37:15;;;;;;;1.20;1.10;;;;;;;;;;4941728;28;20209;-37
2022/08/04 11:39:41;;;;;;;2.53;1.10;;;;;;;;;;4939241;28;20434;-37
2022/08/04 11:42:10;;;;;;;1.93;1.10;;;;;;;;;;4938695;28;20504;-37
2022/08/04 11:44:59;;;;;;;1.60;1.20;;;;;;;;;;4940404;28;20175;-37
2022/08/04 11:47:38;;;;;;;1.57;1.10;;;;;;;;;;4936875;28;20577;-37
2022/08/04 11:50:07;;;;;;;3.57;1.00;;;;;;;;;;4938050;28;20178;-37
2022/08/04 11:52:34;;;;;;;1.90;1.10;;;;;;;;;;4940843;28;20213;-37
2022/08/04 11:55:06;;;;;;;2.90;1.10;;;;;;;;;;4937869;28;20581;-37
2022/08/04 11:57:32;;;;;;;2.70;1.20;;;;;;;;;;4936694;28;20597;-37
2022/08/04 11:59:59;;;;;;;2.03;1.23;;;;;;;;;;4942060;28;20287;-38
2022/08/04 12:02:48;;;;;;;2.67;1.10;;;;;;;;;;4937570;28;20745;-37
2022/08/04 12:05:17;;;;;;;5.30;1.37;;;;;;;;;;4917936;28;20206;-37
2022/08/04 12:08:02;;;;;;;2.10;1.17;;;;;;;;;;4938779;28;20242;-37
2022/08/04 12:10:41;;;;;;;3.10;1.20;;;;;;;;;;4936131;28;20174;-37
2022/08/04 12:13:26;;;;;;;1.27;1.17;;;;;;;;;;4936655;28;20178;-38
2022/08/04 12:15:57;;;;;;;2.50;1.10;;;;;;;;;;4939706;28;20179;-37
2022/08/04 12:18:23;;;;;;;1.40;1.30;;;;;;;;;;4934861;28;20724;-37
2022/08/04 12:20:54;;;;;;;2.40;1.20;;;;;;;;;;4937173;28;20180;-37
2022/08/04 12:23:24;;;;;;;2.03;1.13;;;;;;;;;;4940991;28;20198;-37
2022/08/04 12:25:54;;;;;;;1.83;1.27;;;;;;;;;;4938031;28;20394;-37
2022/08/04 12:28:28;;;;;;;2.80;1.30;;;;;;;;;;4937634;28;20239;-37
2022/08/04 12:31:15;;;;;;;2.23;1.17;;;;;;;;;;4938150;28;20181;-36
2022/08/04 12:33:44;;;;;;;2.43;1.20;;;;;;;;;;4936293;28;20425;-38
2022/08/04 12:36:33;;;;;;;1.30;1.20;;;;;;;;;;4935303;28;20643;-37
2022/08/04 12:39:02;;;;;;;2.40;1.30;;;;;;;;;;4938949;28;20191;-37
2022/08/04 12:41:33;;;;;;;1.30;1.20;;;;;;;;;;4936931;28;20188;-37
2022/08/04 12:44:05;;;;;;;5.07;1.27;;;;;;;;;;4937688;28;20919;-37
2022/08/04 12:46:32;;;;;;;1.50;1.10;;;;;;;;;;4939987;28;20185;-37
2022/08/04 12:49:01;;;;;;;2.17;1.03;;;;;;;;;;4937001;28;20210;-37
2022/08/04 12:51:27;;;;;;;1.53;1.10;;;;;;;;;;4934797;28;20177;-38
2022/08/04 12:53:54;;;;;;;1.47;1.07;;;;;;;;;;4937451;28;20220;-37
2022/08/04 12:56:26;;;;;;;1.37;1.10;;;;;;;;;;4938555;28;20192;-37
2022/08/04 12:58:53;;;;;;;3.13;1.17;;;;;;;;;;4935588;28;20603;-38
2022/08/04 13:01:21;;;;;;;1.87;1.10;;;;;;;;;;4934502;28;20191;-37
2022/08/04 13:03:55;;;;;;;1.13;1.03;;;;;;;;;;4932509;28;20328;-38
2022/08/04 13:06:35;;;;;;;2.35;1.05;;;;;;;;;;4927225;28;20287;-37
2022/08/04 13:09:04;;;;;;;2.97;1.27;;;;;;;;;;4935539;28;20307;-37
2022/08/04 13:11:34;;;;;;;2.15;1.10;;;;;;;;;;4937408;28;20757;-37
2022/08/04 13:14:00;;;;;;;1.83;1.35;;;;;;;;;;4934210;28;20303;-37
2022/08/04 13:16:30;;;;;;;1.25;1.15;;;;;;;;;;4936061;28;20179;-37
2022/08/04 13:18:57;;;;;;;5.55;1.20;;;;;;;;;;4937273;28;20482;-36
2022/08/04 13:21:24;;;;;;;3.03;1.27;;;;;;;;;;4935301;28;20190;-37
2022/08/04 13:23:57;;;;;;;1.20;1.10;;;;;;;;;;4936260;28;20213;-37
2022/08/04 13:26:24;;;;;;;2.63;1.10;;;;;;;;;;4937608;28;20182;-37
2022/08/04 13:28:52;;;;;;;1.15;1.05;;;;;;;;;;4935609;28;20183;-36
2022/08/04 13:31:19;;;;;;;2.35;1.10;;;;;;;;;;4933180;28;20474;-37
2022/08/04 13:33:47;;;;;;;2.72;1.40;;;;;;;;;;4937066;28;20293;-36
2022/08/04 13:36:13;;;;;;;1.77;1.00;;;;;;;;;;4940625;28;20175;-37
2022/08/04 13:38:53;;;;;;;2.30;1.08;;;;;;;;;;4934928;28;20262;-37
2022/08/04 13:41:19;;;;;;;3.28;1.20;;;;;;;;;;4964022;28;21431;-37
2022/08/04 13:43:50;;;;;;;1.15;1.05;;;;;;;;;;4932506;28;20214;-37
2022/08/04 13:46:19;;;;;;;1.00;0.93;;;;;;;;;;4932428;28;21137;-37
2022/08/04 13:48:46;;;;;;;2.08;1.10;;;;;;;;;;4933406;28;20341;-37
2022/08/04 13:51:15;;;;;;;1.58;1.08;;;;;;;;;;4934779;28;20290;-37
2022/08/04 13:53:42;;;;;;;1.10;1.05;;;;;;;;;;4935373;28;20218;-36
2022/08/04 13:56:09;;;;;;;1.20;1.10;;;;;;;;;;4934185;28;20286;-35
2022/08/04 13:58:40;;;;;;;1.50;1.00;;;;;;;;;;4933686;28;20194;-37
2022/08/04 14:01:09;;;;;;;1.60;1.20;;;;;;;;;;4932572;28;20175;-37
2022/08/04 14:03:35;;;;;;;2.10;1.00;;;;;;;;;;4931820;28;20329;-36
2022/08/04 14:06:21;;;;;;;1.25;1.10;;;;;;;;;;4935206;28;20183;-37
2022/08/04 14:08:49;;;;;;;2.95;1.13;;;;;;;;;;4931926;28;20698;-36
2022/08/04 14:11:17;;;;;;;1.10;1.00;;;;;;;;;;4929057;28;20190;-36
2022/08/04 14:13:43;;;;;;;2.72;1.10;;;;;;;;;;4931359;28;20191;-38
2022/08/04 14:16:17;;;;;;;1.85;1.33;;;;;;;;;;4964501;28;21145;-37
2022/08/04 14:18:43;;;;;;;1.38;1.25;;;;;;;;;;4940164;28;20186;-38
2022/08/04 14:21:11;;;;;;;1.77;1.17;;;;;;;;;;4935530;28;20761;-36
2022/08/04 14:23:46;;;;;;;2.28;1.20;;;;;;;;;;4935413;28;21091;-35
2022/08/04 14:26:33;;;;;;;3.13;1.27;;;;;;;;;;4963885;28;20401;-37
2022/08/04 14:29:13;;;;;;;1.67;1.38;;;;;;;;;;4933088;28;20266;-37
2022/08/04 14:31:39;;;;;;;1.50;0.93;;;;;;;;;;4932629;28;20183;-37
2022/08/04 14:34:05;;;;;;;1.77;1.20;;;;;;;;;;4931749;28;20955;-36
2022/08/04 14:36:41;;;;;;;3.03;1.35;;;;;;;;;;4935491;28;20182;-37
2022/08/04 14:39:11;;;;;;;1.27;1.17;;;;;;;;;;4947630;28;20425;-37
2022/08/04 14:41:44;;;;;;;1.05;1.05;;;;;;;;;;4936600;28;20187;-36
2022/08/04 14:44:10;;;;;;;1.98;1.20;;;;;;;;;;4938538;28;20206;-36
2022/08/04 14:46:50;;;;;;;1.50;1.40;;;;;;;;;;4934171;28;20773;-37
2022/08/04 14:49:17;;;;;;;1.77;1.23;;;;;;;;;;4940540;28;20186;-37
2022/08/04 14:51:44;;;;;;;2.80;1.30;;;;;;;;;;4941212;28;20254;-37
2022/08/04 14:57:02;;;;;;;4.95;1.33;;;;;;;;;;4934025;28;20270;-37
2022/08/04 14:59:40;;;;;;;3.58;1.15;;;;;;;;;;4935404;28;20214;-36
2022/08/04 15:02:06;;;;;;;1.42;1.33;;;;;;;;;;4932220;28;20217;-36
2022/08/04 15:04:33;;;;;;;2.13;1.00;;;;;;;;;;4936740;28;20232;-36
2022/08/04 15:07:00;;;;;;;1.30;1.15;;;;;;;;;;4932127;28;20592;-37
2022/08/04 15:09:27;;;;;;;1.92;1.17;;;;;;;;;;4933534;28;20429;-36
2022/08/04 15:11:53;;;;;;;2.75;1.10;;;;;;;;;;4938914;28;20167;-38
2022/08/04 15:14:20;;;;;;;2.55;1.20;;;;;;;;;;4965724;28;20375;-37
2022/08/04 15:16:46;;;;;;;1.75;1.40;;;;;;;;;;4937250;28;20171;-36
2022/08/04 15:19:13;;;;;;;2.15;1.25;;;;;;;;;;4940497;28;20811;-36